Time;durP1;ratioP1;P1;durP2;ratioP2;P2;SDS_P1;SDS_P2;PMS_P1;PMS_P2;Temp;Humidity;BMP_temperature;BMP_pressure;BME280_temperature;BME280_humidity;BME280_pressure;Samples;Min_cycle;Max_cycle;Signal;HPM_P1;HPM_P2
2022/12/30 00:00:01;;;;;;;17.70;2.97;;;7.80;99.90;;;;;;5074835;28;20172;-77
2022/12/30 00:02:26;;;;;;;11.77;2.50;;;7.80;99.90;;;;;;5092713;28;20171;-77
2022/12/30 00:04:52;;;;;;;6.70;2.03;;;7.90;99.90;;;;;;5074544;28;20248;-78
2022/12/30 00:07:19;;;;;;;13.27;2.40;;;7.90;99.90;;;;;;5074606;28;20183;-77
2022/12/30 00:09:45;;;;;;;9.73;2.37;;;7.90;99.90;;;;;;5093062;28;20197;-77
2022/12/30 00:34:35;;;;;;;11.70;2.20;;;7.90;99.90;;;;;;5092569;28;20632;-78
2022/12/30 00:37:01;;;;;;;17.60;2.90;;;8.00;99.90;;;;;;5092778;28;20185;-79
2022/12/30 00:39:27;;;;;;;11.23;2.40;;;8.00;99.90;;;;;;5074350;28;20185;-78
2022/12/30 00:44:37;;;;;;;9.97;2.07;;;8.00;99.90;;;;;;5093001;28;20182;-78
2022/12/30 00:47:05;;;;;;;12.37;2.50;;;7.90;99.90;;;;;;5092521;28;20171;-78
2022/12/30 00:57:43;;;;;;;11.57;2.63;;;7.70;99.90;;;;;;5096418;28;20237;-77
2022/12/30 01:00:12;;;;;;;19.07;3.13;;;7.70;99.90;;;;;;5078271;28;20194;-78
2022/12/30 01:02:39;;;;;;;12.70;2.23;;;7.70;99.90;;;;;;5077849;28;20182;-79
2022/12/30 01:05:05;;;;;;;9.83;2.23;;;7.80;99.90;;;;;;5078157;28;20176;-78
2022/12/30 01:07:31;;;;;;;12.10;2.43;;;7.70;99.90;;;;;;5095987;28;20163;-78
2022/12/30 01:09:57;;;;;;;12.40;2.77;;;7.80;99.90;;;;;;5077865;28;20301;-78
2022/12/30 01:12:24;;;;;;;9.60;2.70;;;7.80;99.90;;;;;;5077659;28;20184;-78
2022/12/30 01:14:52;;;;;;;9.60;1.90;;;7.70;99.90;;;;;;5077829;28;20178;-79
2022/12/30 01:17:21;;;;;;;12.57;2.70;;;7.70;99.90;;;;;;5077294;28;20167;-77
2022/12/30 01:19:47;;;;;;;9.27;2.10;;;7.60;99.90;;;;;;5077617;28;20174;-77
2022/12/30 01:22:13;;;;;;;10.23;2.40;;;7.60;99.90;;;;;;5095720;28;20183;-78
2022/12/30 01:24:38;;;;;;;13.27;2.57;;;7.60;99.90;;;;;;5095732;28;20171;-78
2022/12/30 01:27:05;;;;;;;12.53;2.90;;;7.60;99.90;;;;;;5095774;28;20702;-77
2022/12/30 01:29:34;;;;;;;14.03;2.43;;;7.70;99.90;;;;;;5095516;28;20186;-78
2022/12/30 01:32:00;;;;;;;10.50;2.13;;;7.60;99.90;;;;;;5095382;28;20232;-78
2022/12/30 01:34:26;;;;;;;13.03;2.60;;;7.60;99.90;;;;;;5095450;28;20185;-78
2022/12/30 01:36:51;;;;;;;6.97;1.97;;;7.70;99.90;;;;;;5077429;28;20223;-78
2022/12/30 01:39:19;;;;;;;12.80;2.50;;;7.60;99.90;;;;;;5095292;28;20180;-77
2022/12/30 01:41:45;;;;;;;11.20;2.90;;;7.50;99.90;;;;;;5095554;28;20207;-77
2022/12/30 01:44:51;;;;;;;13.00;2.47;;;7.40;99.90;;;;;;5095272;28;20169;-77
2022/12/30 01:47:32;;;;;;;10.63;1.93;;;7.50;99.90;;;;;;5077000;28;20175;-77
2022/12/30 01:50:10;;;;;;;8.73;2.43;;;7.40;99.90;;;;;;5077325;28;20281;-77
2022/12/30 01:52:47;;;;;;;11.53;2.70;;;7.50;99.90;;;;;;5077201;28;20238;-78
2022/12/30 01:55:26;;;;;;;7.03;2.30;;;7.50;99.90;;;;;;5076903;28;20629;-77
2022/12/30 01:57:54;;;;;;;12.90;2.60;;;7.40;99.90;;;;;;5076958;28;20181;-77
2022/12/30 02:00:20;;;;;;;14.77;2.40;;;7.40;99.90;;;;;;5076625;28;20204;-77
2022/12/30 02:02:46;;;;;;;12.07;2.10;;;7.40;99.90;;;;;;5076492;28;20639;-76
2022/12/30 02:05:15;;;;;;;13.17;3.17;;;7.40;99.90;;;;;;5095098;28;20171;-77
2022/12/30 02:07:55;;;;;;;12.53;2.67;;;7.40;99.90;;;;;;5095592;28;20242;-78
2022/12/30 02:10:21;;;;;;;13.53;3.13;;;7.40;99.90;;;;;;5095047;28;20179;-78
2022/12/30 02:12:53;;;;;;;8.40;2.20;;;7.20;99.90;;;;;;5095623;28;20186;-78
2022/12/30 02:15:19;;;;;;;15.67;3.60;;;7.10;99.90;;;;;;5094770;28;20215;-77
2022/12/30 02:18:17;;;;;;;9.47;2.63;;;7.30;99.90;;;;;;5076873;28;20185;-78
2022/12/30 02:21:23;;;;;;;12.80;2.30;;;7.20;99.90;;;;;;5076567;28;20671;-77
2022/12/30 02:24:06;;;;;;;13.17;2.13;;;7.10;99.90;;;;;;5094618;28;20686;-77
2022/12/30 02:27:06;;;;;;;15.47;2.73;;;7.10;99.90;;;;;;5094653;28;20174;-78
2022/12/30 02:29:47;;;;;;;12.33;2.63;;;7.20;99.90;;;;;;5075969;28;20184;-78
2022/12/30 02:32:53;;;;;;;16.30;3.60;;;7.40;99.90;;;;;;5094537;28;20292;-76
2022/12/30 02:35:52;;;;;;;10.87;2.50;;;7.30;99.90;;;;;;5094555;28;20211;-79
2022/12/30 02:38:30;;;;;;;12.63;2.60;;;7.10;99.90;;;;;;5094653;28;20306;-79
2022/12/30 02:46:40;;;;;;;16.13;2.60;;;7.00;99.90;;;;;;5094600;28;20195;-80
2022/12/30 02:49:09;;;;;;;11.67;2.97;;;7.20;99.90;;;;;;5094335;28;20613;-79
2022/12/30 02:54:21;;;;;;;15.37;2.50;;;7.10;99.90;;;;;;5094403;28;20243;-80
2022/12/30 02:56:52;;;;;;;11.33;2.40;;;7.10;99.90;;;;;;5075961;28;20176;-79
2022/12/30 03:05:10;;;;;;;14.67;2.70;;;7.00;99.90;;;;;;5093871;28;20244;-80
2022/12/30 03:07:44;;;;;;;10.57;2.57;;;7.10;99.90;;;;;;5093896;28;20175;-80
2022/12/30 03:14:13;;;;;;;15.50;2.87;;;7.10;99.90;;;;;;5092881;28;20574;-79
2022/12/30 03:16:45;;;;;;;12.07;2.73;;;7.00;99.90;;;;;;5081411;28;20235;-79
2022/12/30 03:19:18;;;;;;;11.73;3.07;;;6.90;99.90;;;;;;5093587;28;20247;-79
2022/12/30 03:21:47;;;;;;;11.77;3.03;;;6.90;99.90;;;;;;5093389;28;20719;-80
2022/12/30 03:27:05;;;;;;;15.33;3.23;;;6.90;99.90;;;;;;5093526;28;20240;-79
2022/12/30 03:29:41;;;;;;;12.57;2.53;;;6.90;99.90;;;;;;5093261;28;20190;-79
2022/12/30 03:32:10;;;;;;;12.87;2.70;;;6.80;99.90;;;;;;5093416;28;20200;-78
2022/12/30 03:34:36;;;;;;;18.00;2.60;;;6.90;99.90;;;;;;5075099;28;20266;-79
2022/12/30 03:37:23;;;;;;;12.03;2.87;;;6.90;99.90;;;;;;5093313;28;20657;-78
2022/12/30 03:40:00;;;;;;;15.40;2.93;;;6.80;99.90;;;;;;5093356;28;20172;-80
2022/12/30 03:42:27;;;;;;;12.17;3.77;;;6.90;99.90;;;;;;5074884;28;20182;-78
2022/12/30 03:44:53;;;;;;;12.00;2.90;;;7.10;99.90;;;;;;5093238;28;20266;-80
2022/12/30 03:47:20;;;;;;;10.17;2.43;;;7.00;99.90;;;;;;5092897;28;20646;-79
2022/12/30 03:49:45;;;;;;;15.63;2.50;;;7.10;99.90;;;;;;5093205;28;20219;-80
2022/12/30 03:52:14;;;;;;;11.23;3.93;;;7.10;99.90;;;;;;5093232;28;20254;-79
2022/12/30 03:54:41;;;;;;;14.37;2.60;;;7.00;99.90;;;;;;5075068;28;20530;-79
2022/12/30 03:57:06;;;;;;;12.60;2.37;;;7.10;99.90;;;;;;5092629;28;20190;-79
2022/12/30 03:59:33;;;;;;;12.23;2.87;;;7.10;99.90;;;;;;5075123;28;20592;-79
2022/12/30 04:01:59;;;;;;;10.43;2.70;;;7.10;99.90;;;;;;5074759;28;20228;-79
2022/12/30 04:04:25;;;;;;;7.83;2.10;;;7.10;99.90;;;;;;5092946;28;20223;-79
2022/12/30 04:06:50;;;;;;;12.37;2.63;;;7.00;99.90;;;;;;5092898;28;20176;-79
2022/12/30 04:09:16;;;;;;;6.87;2.43;;;7.00;99.90;;;;;;5074956;28;20183;-79
2022/12/30 04:11:42;;;;;;;11.97;2.13;;;6.80;99.90;;;;;;5092692;28;20222;-78
2022/12/30 04:14:07;;;;;;;9.67;2.60;;;6.80;99.90;;;;;;5092966;28;20256;-79
2022/12/30 04:16:33;;;;;;;10.97;3.00;;;6.80;99.90;;;;;;5074787;28;20175;-79
2022/12/30 04:18:59;;;;;;;12.90;2.53;;;6.80;99.90;;;;;;5092884;28;20174;-77
2022/12/30 04:21:24;;;;;;;12.20;2.30;;;6.90;99.90;;;;;;5074525;28;20348;-77
2022/12/30 04:23:50;;;;;;;11.90;2.60;;;7.00;99.90;;;;;;5074802;28;20210;-78
2022/12/30 04:26:16;;;;;;;17.03;3.20;;;6.90;99.90;;;;;;5099260;28;20173;-78
2022/12/30 04:28:41;;;;;;;8.90;2.67;;;6.90;99.90;;;;;;5081306;28;20175;-78
2022/12/30 04:31:07;;;;;;;12.63;2.00;;;6.80;99.90;;;;;;5099640;28;20194;-78
2022/12/30 04:33:33;;;;;;;15.80;3.13;;;6.70;99.90;;;;;;5081202;28;20183;-78
2022/12/30 04:35:58;;;;;;;8.37;2.33;;;6.70;99.90;;;;;;5099551;28;20632;-78
2022/12/30 04:38:24;;;;;;;17.80;2.97;;;6.80;99.90;;;;;;5081220;28;20185;-78
2022/12/30 04:40:50;;;;;;;11.47;2.30;;;7.00;99.90;;;;;;5099294;28;20230;-79
2022/12/30 04:43:16;;;;;;;5.03;2.07;;;7.00;99.90;;;;;;5081300;28;20172;-78
2022/12/30 04:45:42;;;;;;;10.10;2.50;;;7.00;99.90;;;;;;5099379;28;20533;-78
2022/12/30 04:48:08;;;;;;;12.70;2.03;;;6.90;99.90;;;;;;5099093;28;20604;-78
2022/12/30 04:50:34;;;;;;;10.30;2.43;;;6.80;99.90;;;;;;5081163;28;20182;-79
2022/12/30 04:52:59;;;;;;;13.80;2.70;;;6.80;99.90;;;;;;5081079;28;20233;-79
2022/12/30 04:55:25;;;;;;;12.47;3.03;;;6.80;99.90;;;;;;5080837;28;20182;-78
2022/12/30 04:57:51;;;;;;;15.20;2.83;;;6.80;99.90;;;;;;5099060;28;20676;-79
2022/12/30 05:00:17;;;;;;;13.27;3.03;;;6.80;99.90;;;;;;5098989;28;20205;-78
2022/12/30 05:02:43;;;;;;;14.77;2.60;;;6.80;99.90;;;;;;5081058;28;20182;-79
2022/12/30 05:05:09;;;;;;;13.50;2.87;;;6.70;99.90;;;;;;5080970;28;20179;-78
2022/12/30 05:07:34;;;;;;;16.90;3.30;;;6.60;99.90;;;;;;5080787;28;20178;-78
2022/12/30 05:10:00;;;;;;;13.10;2.97;;;6.60;99.90;;;;;;5080727;28;20221;-78
2022/12/30 05:12:26;;;;;;;10.43;3.50;;;6.60;99.90;;;;;;5099139;28;20633;-79
2022/12/30 05:14:51;;;;;;;14.50;3.60;;;6.70;99.90;;;;;;5099023;28;20160;-78
2022/12/30 05:17:17;;;;;;;15.93;4.13;;;6.70;99.90;;;;;;5098989;28;20741;-78
2022/12/30 05:19:42;;;;;;;12.80;3.33;;;6.70;99.90;;;;;;5099168;28;20179;-78
2022/12/30 05:22:08;;;;;;;9.93;3.50;;;6.60;99.90;;;;;;5099082;28;20203;-79
2022/12/30 05:27:19;;;;;;;9.70;2.70;;;6.70;99.90;;;;;;5098933;28;20177;-78
2022/12/30 05:29:44;;;;;;;10.33;3.50;;;6.50;99.90;;;;;;5080699;28;20198;-78
2022/12/30 05:32:11;;;;;;;13.03;3.40;;;6.50;99.90;;;;;;5099033;28;20179;-78
2022/12/30 05:34:36;;;;;;;15.73;4.03;;;6.40;99.90;;;;;;5098904;28;20191;-78
2022/12/30 05:37:03;;;;;;;11.37;3.67;;;6.50;99.90;;;;;;5095606;28;20629;-78
2022/12/30 05:39:29;;;;;;;16.43;3.70;;;6.50;99.90;;;;;;5095435;28;20232;-78
2022/12/30 05:41:54;;;;;;;10.40;3.60;;;6.50;99.90;;;;;;5077514;28;20199;-78
2022/12/30 05:44:20;;;;;;;9.53;4.07;;;6.60;99.90;;;;;;5077497;28;20263;-78
2022/12/30 05:46:45;;;;;;;8.80;3.13;;;6.70;99.90;;;;;;5095598;28;20158;-78
2022/12/30 05:49:11;;;;;;;4.70;2.70;;;6.80;99.90;;;;;;5095560;28;20179;-78
2022/12/30 05:51:37;;;;;;;12.73;3.57;;;6.80;99.90;;;;;;5095375;28;20570;-77
2022/12/30 05:54:02;;;;;;;13.77;3.90;;;6.70;99.90;;;;;;5095159;28;20181;-78
2022/12/30 05:56:28;;;;;;;16.40;3.57;;;6.70;99.90;;;;;;5095368;28;20232;-78
2022/12/30 05:58:54;;;;;;;11.53;3.97;;;6.60;99.90;;;;;;5095350;28;20217;-78
2022/12/30 06:01:20;;;;;;;14.73;4.00;;;6.70;99.90;;;;;;5095458;28;20257;-79
2022/12/30 06:03:46;;;;;;;13.87;3.17;;;6.70;99.90;;;;;;5095273;28;20221;-78
2022/12/30 06:06:11;;;;;;;8.20;2.83;;;6.80;99.90;;;;;;5077310;28;20627;-79
2022/12/30 06:08:38;;;;;;;10.03;3.00;;;6.90;99.90;;;;;;5076696;28;20220;-78
2022/12/30 06:11:05;;;;;;;9.50;3.17;;;6.90;99.90;;;;;;5077337;28;20209;-78
2022/12/30 06:13:31;;;;;;;10.53;3.37;;;7.00;99.90;;;;;;5095462;28;20269;-78
2022/12/30 06:15:57;;;;;;;11.07;3.20;;;7.00;99.90;;;;;;5077160;28;20286;-78
2022/12/30 06:18:25;;;;;;;8.63;3.20;;;7.00;99.90;;;;;;5095006;28;20220;-79
2022/12/30 06:20:51;;;;;;;10.67;2.67;;;7.00;99.90;;;;;;5076572;28;20569;-78
2022/12/30 06:23:16;;;;;;;10.30;2.40;;;7.00;99.90;;;;;;5076582;28;20184;-77
2022/12/30 06:25:42;;;;;;;8.97;2.60;;;7.00;99.90;;;;;;5094617;28;20175;-78
2022/12/30 06:28:07;;;;;;;13.10;2.87;;;7.00;99.90;;;;;;5076506;28;20185;-77
2022/12/30 06:30:33;;;;;;;9.97;2.83;;;7.10;99.90;;;;;;5094726;28;20201;-77
2022/12/30 06:32:59;;;;;;;12.67;3.03;;;7.10;99.90;;;;;;5076644;28;20183;-78
2022/12/30 06:35:24;;;;;;;9.47;2.70;;;7.20;99.90;;;;;;5094510;28;20200;-78
2022/12/30 06:37:51;;;;;;;15.20;3.00;;;7.20;99.90;;;;;;5094496;28;20628;-78
2022/12/30 06:40:17;;;;;;;8.07;2.50;;;7.30;99.90;;;;;;5094567;28;20186;-78
2022/12/30 06:42:44;;;;;;;7.10;2.80;;;7.40;99.90;;;;;;5076459;28;20178;-78
2022/12/30 06:45:10;;;;;;;11.07;2.87;;;7.30;99.90;;;;;;5094624;28;20312;-78
2022/12/30 06:47:35;;;;;;;12.37;2.57;;;7.20;99.90;;;;;;5076078;28;20630;-78
2022/12/30 06:50:02;;;;;;;5.10;2.30;;;7.10;99.90;;;;;;5094236;28;20258;-78
2022/12/30 06:52:28;;;;;;;6.80;2.17;;;7.10;99.90;;;;;;5094104;28;20214;-78
2022/12/30 06:54:53;;;;;;;10.03;2.17;;;7.20;99.90;;;;;;5094286;28;20164;-78
2022/12/30 06:57:19;;;;;;;8.10;2.43;;;7.20;99.90;;;;;;5076018;28;20632;-78
2022/12/30 06:59:45;;;;;;;9.03;2.23;;;7.20;99.90;;;;;;5075992;28;20176;-77
2022/12/30 07:02:13;;;;;;;6.40;2.50;;;7.20;99.90;;;;;;5093933;28;20570;-78
2022/12/30 07:04:39;;;;;;;6.93;2.13;;;7.20;99.90;;;;;;5094301;28;20180;-78
2022/12/30 07:07:05;;;;;;;6.13;2.00;;;7.20;99.90;;;;;;5075512;28;20226;-77
2022/12/30 07:09:31;;;;;;;10.67;2.33;;;7.20;99.90;;;;;;5094212;28;20183;-77
2022/12/30 07:11:57;;;;;;;5.20;2.10;;;7.30;99.90;;;;;;5093891;28;20540;-78
2022/12/30 07:14:23;;;;;;;9.87;2.10;;;7.30;99.90;;;;;;5093835;28;20270;-78
2022/12/30 07:16:48;;;;;;;7.03;2.07;;;7.40;99.90;;;;;;5093963;28;20258;-79
2022/12/30 07:19:14;;;;;;;8.33;2.40;;;7.30;99.90;;;;;;5075404;28;20626;-77
2022/12/30 07:21:40;;;;;;;8.07;2.90;;;7.40;99.90;;;;;;5075490;28;20191;-78
2022/12/30 07:24:06;;;;;;;6.80;1.93;;;7.40;99.90;;;;;;5093745;28;20178;-78
2022/12/30 07:26:32;;;;;;;6.03;2.50;;;7.40;99.90;;;;;;5093920;28;20219;-78
2022/12/30 07:28:57;;;;;;;7.40;3.10;;;7.40;99.90;;;;;;5075966;28;20537;-76
2022/12/30 07:31:26;;;;;;;4.73;1.80;;;7.40;99.90;;;;;;5093628;28;20181;-78
2022/12/30 07:33:52;;;;;;;5.83;2.33;;;7.40;99.90;;;;;;5093369;28;20192;-78
2022/12/30 07:36:17;;;;;;;7.30;2.50;;;7.40;99.90;;;;;;5093406;28;20152;-78
2022/12/30 07:38:43;;;;;;;4.13;2.00;;;7.40;99.90;;;;;;5093479;28;20178;-78
2022/12/30 07:41:12;;;;;;;7.70;1.90;;;7.40;99.90;;;;;;5075203;28;20271;-78
2022/12/30 07:43:38;;;;;;;6.93;1.90;;;7.40;99.90;;;;;;5075080;28;20184;-78
2022/12/30 07:46:05;;;;;;;6.70;2.40;;;7.40;99.90;;;;;;5093174;28;20171;-78
2022/12/30 07:48:31;;;;;;;7.37;2.10;;;7.40;99.90;;;;;;5074670;28;20228;-78
2022/12/30 07:50:57;;;;;;;5.60;1.77;;;7.60;99.90;;;;;;5093187;28;20186;-78
2022/12/30 07:53:23;;;;;;;11.90;2.30;;;7.60;99.90;;;;;;5093068;28;20648;-78
2022/12/30 07:55:50;;;;;;;3.53;1.60;;;7.60;99.90;;;;;;5092896;28;20160;-77
2022/12/30 07:58:15;;;;;;;5.73;1.97;;;7.50;99.90;;;;;;5075081;28;20182;-78
2022/12/30 08:00:41;;;;;;;4.97;1.70;;;7.50;99.90;;;;;;5092339;28;20268;-79
2022/12/30 08:03:07;;;;;;;6.13;1.67;;;7.50;99.90;;;;;;5074685;28;20193;-77
2022/12/30 08:05:32;;;;;;;4.77;1.83;;;7.60;99.90;;;;;;5092981;28;20170;-79
2022/12/30 08:08:01;;;;;;;9.07;2.20;;;7.60;99.90;;;;;;5074567;28;20173;-77
2022/12/30 08:10:26;;;;;;;9.03;2.23;;;7.50;99.90;;;;;;5074618;28;20173;-77
2022/12/30 08:12:52;;;;;;;3.50;1.77;;;7.60;99.90;;;;;;5092709;28;20515;-77
2022/12/30 08:15:17;;;;;;;4.00;1.60;;;7.70;99.90;;;;;;5074590;28;20185;-77
2022/12/30 08:17:43;;;;;;;4.50;1.73;;;7.70;99.90;;;;;;5074231;28;20181;-77
2022/12/30 08:20:09;;;;;;;7.80;2.10;;;7.70;99.90;;;;;;5074385;28;20184;-77
2022/12/30 08:22:36;;;;;;;6.43;1.73;;;7.70;99.90;;;;;;5092473;28;20173;-79
2022/12/30 08:25:02;;;;;;;4.93;2.00;;;7.80;99.90;;;;;;5092751;28;20670;-79
2022/12/30 08:27:28;;;;;;;6.07;1.53;;;7.70;99.90;;;;;;5074346;28;20180;-77
2022/12/30 08:29:54;;;;;;;4.13;1.83;;;7.80;99.90;;;;;;5092443;28;20649;-78
2022/12/30 08:32:19;;;;;;;4.87;1.70;;;7.80;99.90;;;;;;5074189;28;20663;-78
2022/12/30 08:34:45;;;;;;;3.67;1.40;;;7.80;99.90;;;;;;5092669;28;20173;-78
2022/12/30 08:37:10;;;;;;;6.27;1.50;;;7.90;99.90;;;;;;5074267;28;20183;-77
2022/12/30 08:39:36;;;;;;;6.77;1.70;;;7.90;99.90;;;;;;5092585;28;20639;-78
2022/12/30 08:42:02;;;;;;;5.00;1.40;;;7.90;99.90;;;;;;5092366;28;20189;-78
2022/12/30 08:44:28;;;;;;;8.93;1.50;;;7.90;99.90;;;;;;5092561;28;20596;-78
2022/12/30 08:46:54;;;;;;;3.37;1.53;;;7.90;99.90;;;;;;5091925;28;20212;-78
2022/12/30 08:49:20;;;;;;;4.23;1.37;;;8.00;99.90;;;;;;5092347;28;20176;-78
2022/12/30 08:51:46;;;;;;;4.40;1.13;;;7.90;99.90;;;;;;5092351;28;20184;-78
2022/12/30 08:54:11;;;;;;;7.77;1.57;;;7.90;99.90;;;;;;5092182;28;20654;-78
2022/12/30 08:56:39;;;;;;;5.97;1.83;;;8.00;99.90;;;;;;5092467;28;20183;-78
2022/12/30 08:59:05;;;;;;;5.37;1.90;;;8.10;99.90;;;;;;5074232;28;20176;-78
2022/12/30 09:01:40;;;;;;;8.30;1.40;;;8.10;99.90;;;;;;5092043;28;20201;-78
2022/12/30 09:04:08;;;;;;;5.13;1.40;;;8.10;99.90;;;;;;5092265;28;20198;-78
2022/12/30 09:06:38;;;;;;;4.47;1.40;;;8.20;99.90;;;;;;5074281;28;20257;-78
2022/12/30 09:09:06;;;;;;;1.93;1.17;;;8.20;99.90;;;;;;5092375;28;20567;-78
2022/12/30 09:11:34;;;;;;;4.80;1.40;;;8.20;99.90;;;;;;5093097;28;20167;-78
2022/12/30 09:14:03;;;;;;;4.83;1.17;;;8.30;99.90;;;;;;5095993;28;20181;-78
2022/12/30 09:16:30;;;;;;;5.47;1.63;;;8.50;99.90;;;;;;5077825;28;20175;-78
2022/12/30 09:18:57;;;;;;;5.50;1.90;;;8.50;99.90;;;;;;5096072;28;20173;-78
2022/12/30 09:21:24;;;;;;;7.93;1.77;;;8.50;99.90;;;;;;5078047;28;20224;-78
2022/12/30 09:23:49;;;;;;;7.17;1.60;;;8.50;99.90;;;;;;5096549;28;20172;-78
2022/12/30 09:26:18;;;;;;;5.07;1.37;;;8.70;99.90;;;;;;5078210;28;20188;-77
2022/12/30 09:28:44;;;;;;;8.33;1.80;;;8.70;99.90;;;;;;5077752;28;20180;-78
2022/12/30 09:31:10;;;;;;;9.43;1.97;;;8.70;99.90;;;;;;5095788;28;20193;-78
2022/12/30 09:33:36;;;;;;;4.90;1.40;;;8.70;99.90;;;;;;5095769;28;20181;-78
2022/12/30 09:36:03;;;;;;;3.87;1.40;;;8.60;99.90;;;;;;5096110;28;20168;-78
2022/12/30 09:38:28;;;;;;;6.77;1.47;;;8.60;99.90;;;;;;5095918;28;20177;-78
2022/12/30 09:41:08;;;;;;;9.10;1.53;;;8.60;99.90;;;;;;5077769;28;20200;-78
2022/12/30 09:44:18;;;;;;;3.77;1.40;;;8.70;99.90;;;;;;5096621;28;20614;-78
2022/12/30 09:46:49;;;;;;;4.63;1.30;;;8.70;99.90;;;;;;5095646;28;20173;-78
2022/12/30 09:49:42;;;;;;;7.77;1.67;;;8.80;99.90;;;;;;5095643;28;20543;-78
2022/12/30 09:52:23;;;;;;;5.27;1.40;;;8.80;99.90;;;;;;5095654;28;20186;-78
2022/12/30 09:54:59;;;;;;;5.00;1.37;;;8.90;99.90;;;;;;5095801;28;20188;-78
2022/12/30 09:57:31;;;;;;;4.63;1.20;;;8.90;99.90;;;;;;5095712;28;20576;-78
2022/12/30 10:00:04;;;;;;;9.53;2.03;;;8.80;99.90;;;;;;5077364;28;20192;-79
2022/12/30 10:02:44;;;;;;;6.37;1.50;;;8.80;99.90;;;;;;5077595;28;20668;-78
2022/12/30 10:05:12;;;;;;;6.90;1.60;;;8.90;99.90;;;;;;5095193;28;20225;-77
2022/12/30 10:07:41;;;;;;;8.17;1.50;;;8.90;99.90;;;;;;5076879;28;20567;-77
2022/12/30 10:10:27;;;;;;;9.93;1.40;;;9.00;99.90;;;;;;5094833;28;20183;-77
2022/12/30 10:13:04;;;;;;;7.03;1.97;;;9.00;99.90;;;;;;5076742;28;20216;-77
2022/12/30 10:15:59;;;;;;;6.03;1.67;;;9.00;99.90;;;;;;5094836;28;20187;-76
2022/12/30 10:19:02;;;;;;;5.77;2.30;;;9.10;99.90;;;;;;5076597;28;20657;-77
2022/12/30 10:21:48;;;;;;;5.20;1.30;;;9.10;99.90;;;;;;5094436;28;20346;-77
2022/12/30 10:24:41;;;;;;;6.10;1.60;;;9.10;99.90;;;;;;5076148;28;20187;-77
2022/12/30 10:27:20;;;;;;;6.60;1.97;;;9.10;99.90;;;;;;5094691;28;20265;-77
2022/12/30 10:29:47;;;;;;;5.47;2.20;;;9.20;99.90;;;;;;5094518;28;20225;-76
2022/12/30 10:32:29;;;;;;;5.30;1.43;;;9.20;99.90;;;;;;5076440;28;20654;-77
2022/12/30 10:35:01;;;;;;;8.33;2.00;;;9.30;99.90;;;;;;5094612;28;20653;-77
2022/12/30 10:37:34;;;;;;;8.77;2.37;;;9.30;99.90;;;;;;5094184;28;20551;-77
2022/12/30 10:40:07;;;;;;;10.37;1.47;;;9.40;99.90;;;;;;5075984;28;20178;-77
2022/12/30 10:43:04;;;;;;;9.70;1.50;;;9.50;99.90;;;;;;5094322;28;20215;-76
2022/12/30 10:45:56;;;;;;;8.77;1.50;;;9.50;99.90;;;;;;5094423;28;20182;-76
2022/12/30 10:48:31;;;;;;;6.07;1.53;;;9.60;99.90;;;;;;5080613;28;20178;-76
2022/12/30 10:50:57;;;;;;;6.80;1.97;;;9.80;99.90;;;;;;5076257;28;20213;-76
2022/12/30 10:53:26;;;;;;;4.67;1.30;;;9.90;99.90;;;;;;5076017;28;20189;-76
2022/12/30 10:55:59;;;;;;;4.57;1.30;;;9.80;99.90;;;;;;5093862;28;20187;-77
2022/12/30 10:58:40;;;;;;;8.97;1.40;;;9.90;99.90;;;;;;5075709;28;20174;-76
2022/12/30 11:01:18;;;;;;;3.27;1.00;;;9.90;99.90;;;;;;5075761;28;20194;-76
2022/12/30 11:03:58;;;;;;;6.57;1.80;;;9.80;99.90;;;;;;5075857;28;20247;-76
2022/12/30 11:06:28;;;;;;;5.50;1.10;;;9.80;99.90;;;;;;5075821;28;20587;-77
2022/12/30 11:09:15;;;;;;;3.97;1.10;;;9.80;99.90;;;;;;5075757;28;20269;-78
2022/12/30 11:14:44;;;;;;;3.80;1.60;;;9.70;99.90;;;;;;5094327;28;20183;-77
2022/12/30 11:17:17;;;;;;;5.17;1.10;;;9.70;99.90;;;;;;5093504;28;20223;-78
2022/12/30 11:20:01;;;;;;;6.87;1.23;;;9.80;99.90;;;;;;5075649;28;20614;-77
2022/12/30 11:22:28;;;;;;;7.90;2.30;;;9.80;99.90;;;;;;5093671;28;20236;-77
2022/12/30 11:25:21;;;;;;;5.67;1.60;;;9.60;99.90;;;;;;5093451;28;20635;-78
2022/12/30 11:27:51;;;;;;;4.27;1.20;;;9.60;99.90;;;;;;5074947;28;20183;-78
2022/12/30 11:30:38;;;;;;;3.13;1.17;;;9.50;99.90;;;;;;5075146;28;20201;-77
2022/12/30 11:33:15;;;;;;;5.50;1.80;;;9.40;99.90;;;;;;5075546;28;20167;-78
2022/12/30 11:35:47;;;;;;;2.23;1.40;;;9.30;99.90;;;;;;5074736;28;20226;-77
2022/12/30 11:38:36;;;;;;;4.30;1.57;;;9.20;99.90;;;;;;5093247;28;20272;-77
2022/12/30 11:41:24;;;;;;;1.80;1.00;;;9.20;99.90;;;;;;5074740;28;20208;-77
2022/12/30 11:44:06;;;;;;;3.67;1.20;;;9.20;99.90;;;;;;5076108;28;20615;-79
2022/12/30 11:46:44;;;;;;;1.70;0.87;;;9.20;99.90;;;;;;5074916;28;20209;-79
2022/12/30 11:49:26;;;;;;;2.93;1.50;;;9.20;99.90;;;;;;5075017;28;20201;-79
2022/12/30 11:51:53;;;;;;;6.07;1.73;;;9.20;99.90;;;;;;5093227;28;20336;-78
2022/12/30 11:54:22;;;;;;;5.50;1.33;;;9.10;99.90;;;;;;5074875;28;20211;-79
2022/12/30 11:56:56;;;;;;;4.80;1.20;;;9.10;99.90;;;;;;5092819;28;20701;-78
2022/12/30 11:59:25;;;;;;;4.87;1.30;;;9.20;99.90;;;;;;5074649;28;20631;-78
2022/12/30 12:01:56;;;;;;;2.57;1.70;;;9.20;99.90;;;;;;5093005;28;20202;-77
2022/12/30 12:04:40;;;;;;;3.23;1.37;;;9.20;99.90;;;;;;5074914;28;20171;-79
2022/12/30 12:07:18;;;;;;;3.93;1.80;;;9.20;99.90;;;;;;5092911;28;20264;-78
2022/12/30 12:10:01;;;;;;;4.97;1.20;;;9.10;99.90;;;;;;5092555;28;20254;-79
2022/12/30 12:12:35;;;;;;;2.73;1.27;;;9.10;99.90;;;;;;5074581;28;20285;-79
2022/12/30 12:15:28;;;;;;;5.23;1.23;;;9.20;99.90;;;;;;5092953;28;20253;-80
2022/12/30 12:18:00;;;;;;;3.57;1.30;;;9.20;99.90;;;;;;5074510;28;20179;-79
2022/12/30 12:20:34;;;;;;;7.37;2.00;;;9.20;99.90;;;;;;5074590;28;20201;-79
2022/12/30 12:23:38;;;;;;;2.60;1.07;;;9.30;99.90;;;;;;5092614;28;20171;-79
2022/12/30 12:26:07;;;;;;;2.33;1.30;;;9.40;99.90;;;;;;5069511;28;20178;-78
2022/12/30 12:28:37;;;;;;;2.27;0.83;;;9.40;99.90;;;;;;5074565;28;20220;-79
2022/12/30 12:31:20;;;;;;;2.60;0.73;;;9.50;99.90;;;;;;5074533;28;20205;-79
2022/12/30 12:33:48;;;;;;;1.20;0.70;;;9.40;99.90;;;;;;5074428;28;20174;-79
2022/12/30 12:36:37;;;;;;;2.93;0.80;;;9.40;99.90;;;;;;5074419;28;20189;-79
2022/12/30 12:39:11;;;;;;;1.30;1.10;;;9.40;99.90;;;;;;5092452;28;20181;-79
2022/12/30 12:41:58;;;;;;;1.40;0.70;;;9.30;99.90;;;;;;5092511;28;20212;-80
2022/12/30 12:44:26;;;;;;;1.37;0.77;;;9.30;99.90;;;;;;5092744;28;20174;-79
2022/12/30 12:47:10;;;;;;;1.97;0.93;;;9.40;99.90;;;;;;5077448;28;20427;-78
2022/12/30 12:50:22;;;;;;;1.00;0.57;;;9.30;99.90;;;;;;5078596;28;20177;-79
2022/12/30 12:52:50;;;;;;;2.23;0.83;;;9.20;99.90;;;;;;4994653;28;20188;-78
2022/12/30 12:55:51;;;;;;;1.83;0.70;;;9.20;99.90;;;;;;4978485;28;20193;-78
2022/12/30 12:58:29;;;;;;;2.27;0.80;;;9.20;99.90;;;;;;5073368;28;20279;-77
2022/12/30 13:01:18;;;;;;;1.97;0.50;;;9.20;99.90;;;;;;5078444;28;20198;-78
2022/12/30 13:03:48;;;;;;;1.10;0.50;;;9.30;99.90;;;;;;5096396;28;20670;-78
2022/12/30 13:06:36;;;;;;;0.80;0.60;;;9.30;99.90;;;;;;5096540;28;20173;-77
2022/12/30 13:09:13;;;;;;;3.23;0.83;;;9.30;99.90;;;;;;5077979;28;20573;-78
2022/12/30 13:11:42;;;;;;;2.27;0.90;;;9.30;99.90;;;;;;5078281;28;20181;-77
2022/12/30 13:14:28;;;;;;;3.27;0.73;;;9.30;99.90;;;;;;5078097;28;20182;-77
2022/12/30 13:16:58;;;;;;;1.37;0.50;;;9.40;99.90;;;;;;5096246;28;20176;-77
2022/12/30 13:19:33;;;;;;;1.70;1.07;;;9.50;99.90;;;;;;5077878;28;20273;-77
2022/12/30 13:22:04;;;;;;;3.37;1.33;;;9.60;99.90;;;;;;5096281;28;20213;-77
2022/12/30 13:24:36;;;;;;;1.17;0.70;;;9.70;99.90;;;;;;5077625;28;20189;-77
2022/12/30 13:27:07;;;;;;;2.73;0.93;;;9.70;99.90;;;;;;5077852;28;20182;-77
2022/12/30 13:29:36;;;;;;;3.77;1.00;;;9.80;99.90;;;;;;5095694;28;20686;-78
2022/12/30 13:32:26;;;;;;;2.63;1.10;;;9.80;99.90;;;;;;5077545;28;20182;-77
2022/12/30 13:35:05;;;;;;;2.60;1.27;;;9.80;99.90;;;;;;5095670;28;20199;-78
2022/12/30 13:37:39;;;;;;;1.83;1.10;;;9.70;99.90;;;;;;5077359;28;20197;-78
2022/12/30 13:40:12;;;;;;;0.87;0.63;;;9.70;99.90;;;;;;5077530;28;20200;-80
2022/12/30 13:42:46;;;;;;;1.20;0.67;;;9.80;99.90;;;;;;5095562;28;20205;-79
2022/12/30 13:45:31;;;;;;;0.60;0.40;;;9.90;99.90;;;;;;5095520;28;20208;-78
2022/12/30 13:48:11;;;;;;;2.17;1.17;;;10.10;99.90;;;;;;5095740;28;20217;-78
2022/12/30 13:50:38;;;;;;;2.47;1.50;;;10.20;99.90;;;;;;5077490;28;20189;-77
2022/12/30 13:53:25;;;;;;;0.30;0.27;;;10.20;99.90;;;;;;5095447;28;20531;-78
2022/12/30 13:55:52;;;;;;;1.50;0.90;;;10.30;99.90;;;;;;5077295;28;20214;-78
2022/12/30 13:58:32;;;;;;;0.70;0.53;;;10.30;99.90;;;;;;5094453;28;20181;-78
2022/12/30 14:01:19;;;;;;;0.70;0.33;;;10.30;99.90;;;;;;5095362;28;20210;-78
2022/12/30 14:03:49;;;;;;;0.50;0.30;;;10.30;99.90;;;;;;5095312;28;20231;-78
2022/12/30 14:06:28;;;;;;;0.50;0.40;;;10.30;99.90;;;;;;5076874;28;20181;-78
2022/12/30 14:09:18;;;;;;;2.47;0.60;;;10.40;99.90;;;;;;5095212;28;20250;-78
2022/12/30 14:12:06;;;;;;;1.73;0.80;;;10.40;99.90;;;;;;5077902;28;20595;-77
2022/12/30 14:14:33;;;;;;;1.33;0.70;;;10.50;99.90;;;;;;5077631;28;20595;-76